RS-0010 weather

Bogatić
Serbia

Public forecast

Using degrees Celsius for public forecast. Weather courtesy of forecast.io.

Closest aviation weather report (METAR) to Bogatić

Closest report is Batajnica Air Base, 32.9 nm (60.9 km) ENE. Retrieved 2020/07/16 02:30 UTC (8 minutes ago):

LYBT 160230Z 26004KT CAVOK 16/14 Q1013 NOSIG

Closest aviation forecast (TAF) to Bogatić

Closest forecast is Batajnica Air Base, 32.9 nm (60.9 km) ENE. Retrieved 2020-07-16 00:00 UTC (3 hours ago):

TAF LYBT 152300Z 1600/1624 33005KT 9999 SCT040 TX28/1613Z TN14/1603Z TEMPO 1601/1603 5000 SHRA SCT030TCU BKN040